• Join FlightAware (Why Join?)
  • Login
  • US Flag 
12:47AM EDT


 

Airport Tracker/Info


-or-


 

Live Flight TrackerFlight Track Log ✈ TAM3741 ✈ 31-Oct-2013 ✈ SBFZ / FOR - SBGR / GRU

Flight Track Log - Related Links

Times and Time Zones

All times are in EDT time to prevent confusion due to time zone crossing. See the TAM3741 flight status page for this flight to view local times or setup timezone preferences in your user account.

Time Position Orientation Groundspeed Altitude Reporting Facility
EDT Latitude Longitude Course Direction KTS MPH feet Rate Location/Type
10:29AM -3.7780 -38.5390 360° North  Level FlightAware
10:32AM -3.9933 -38.6201 201° Southwest  Level Estimated
10:35AM -3.7780 -38.5270 104° East 150 173 200  Level FlightAware
10:35AM -3.7850 -38.4990 104° East 151 174 1,700 1,860 Climbing FlightAware
10:36AM -3.7960 -38.4780 118° Southeast 152 175 2,600 1,140 Climbing FlightAware
10:37AM -3.8290 -38.4820 187° South 200 230 3,200 1,020 Climbing FlightAware
10:37AM -3.8740 -38.4810 179° South 259 298 4,000 1,980 Climbing FlightAware
10:38AM -3.9250 -38.4820 181° South 257 296 5,900 2,520 Climbing FlightAware
10:39AM -3.9740 -38.4850 183° South 277 319 7,400 2,160 Climbing FlightAware
10:39AM -4.0210 -38.4870 182° South 289 333 8,700 2,160 Climbing FlightAware
10:40AM -4.0760 -38.4900 183° South 292 336 10,100 1,620 Climbing FlightAware
10:41AM -4.1520 -38.4930 182° South 341 392 11,100 1,500 Climbing FlightAware
10:41AM -4.2330 -38.4970 183° South 355 409 12,700 1,800 Climbing FlightAware
10:42AM -4.3070 -38.5010 183° South 368 423 14,000 1,500 Climbing FlightAware
10:43AM -4.3620 -38.5030 182° South 372 428 14,700 1,560 Climbing FlightAware
10:43AM -4.4400 -38.5070 183° South 390 449 15,900 1,560 Climbing FlightAware
10:44AM -4.5240 -38.5110 183° South 399 459 17,100 1,740 Climbing FlightAware
10:45AM -4.5790 -38.5130 182° South 384 442 18,200 1,560 Climbing FlightAware
10:45AM -4.6410 -38.5270 193° South 395 455 18,800 1,200 Climbing FlightAware
10:46AM -4.6910 -38.5620 215° Southwest 396 456 19,600 1,380 Climbing FlightAware
10:46AM -4.7430 -38.6000 216° Southwest 402 463 20,300 1,260 Climbing FlightAware
10:47AM -4.7910 -38.6350 216° Southwest 404 465 21,000 480 Climbing FlightAware
10:48AM -4.8520 -38.6810 217° Southwest 404 465 21,000  Level FlightAware
10:48AM -4.9000 -38.7170 217° Southwest 404 465 21,000  Level FlightAware
10:49AM -4.9460 -38.7520 217° Southwest 404 465 21,000  Level FlightAware
10:50AM -5.0080 -38.7990 217° Southwest 404 465 21,000  Level FlightAware
10:51AM -5.0690 -38.8450 217° Southwest 404 465 21,000  Level FlightAware
10:51AM -5.0840 -38.8570 219° Southwest 404 465 21,000 1,200 Level FlightAware
10:54AM -5.3632 -38.9650 201° Southwest  Level Estimated
10:55AM -5.4679 -39.0056 201° Southwest  Level Estimated
10:56AM -5.5726 -39.0461 201° Southwest  Level Estimated
10:57AM -5.6773 -39.0867 201° Southwest  Level Estimated
10:58AM -5.7819 -39.1273 201° Southwest  Level Estimated
10:59AM -5.8866 -39.1679 201° Southwest  Level Estimated
11:00AM -5.9913 -39.2085 201° Southwest  Level Estimated
11:01AM -6.0960 -39.2491 201° Southwest  Level Estimated
11:01AM -6.2400 -39.6790 201° Southwest 438 504 34,000  Level FlightAware
11:02AM -6.2006 -39.2897 201° Southwest  Level Estimated
11:02AM -6.2990 -39.7220 216° Southwest 438 504 34,000  Level FlightAware
11:03AM -6.3440 -39.7550 216° Southwest 438 504 34,000  Level FlightAware
11:03AM -6.4140 -39.8050 215° Southwest 439 505 34,000  Level FlightAware
11:04AM -6.5140 -39.8780 216° Southwest 438 504 34,000  Level FlightAware
11:05AM -6.5710 -39.9190 216° Southwest 438 504 34,000  Level FlightAware
11:06AM -6.6390 -39.9680 216° Southwest 438 504 34,000  Level FlightAware
11:06AM -6.7100 -40.0200 216° Southwest 436 502 34,000  Level FlightAware
11:07AM -6.7810 -40.0710 215° Southwest 436 502 34,000  Level FlightAware
11:08AM -6.8660 -40.1330 216° Southwest 436 502 34,000  Level FlightAware
11:09AM -6.9390 -40.1860 216° Southwest 436 502 34,000  Level FlightAware
11:09AM -6.9840 -40.2190 216° Southwest 436 502 34,000  Level FlightAware
11:10AM -7.0620 -40.2760 216° Southwest 437 503 34,000  Level FlightAware
11:10AM -7.1170 -40.3150 215° Southwest 437 503 34,000  Level FlightAware
11:11AM -7.1380 -40.3310 217° Southwest 438 504 34,000  Level FlightAware
11:12AM -7.2400 -40.4010 214° Southwest 438 504 34,000  Level FlightAware
11:13AM -7.3870 -40.4810 208° Southwest 438 504 34,000  Level FlightAware
11:14AM -7.4480 -40.5130 207° Southwest 438 504 34,000  Level FlightAware
11:14AM -7.5400 -40.5630 208° Southwest 439 505 34,000  Level FlightAware
11:15AM -7.6190 -40.6060 208° Southwest 440 506 34,000  Level FlightAware
11:16AM -7.6740 -40.6360 208° Southwest 440 506 34,000  Level FlightAware
11:17AM -7.7740 -40.6900 208° Southwest 440 506 34,000  Level FlightAware
11:17AM -7.8490 -40.7300 208° Southwest 440 506 34,000  Level FlightAware
11:18AM -7.9150 -40.7660 208° Southwest 438 504 34,000  Level FlightAware
11:18AM -7.9770 -40.7990 208° Southwest 438 504 34,000  Level FlightAware
11:19AM -8.0490 -40.8380 208° Southwest 437 503 34,000  Level FlightAware
11:20AM -8.1060 -40.8690 208° Southwest 437 503 34,000  Level FlightAware
11:21AM -8.2280 -40.9350 208° Southwest 438 504 34,000  Level FlightAware
11:21AM -8.2910 -40.9700 209° Southwest 438 504 34,000  Level FlightAware
11:22AM -8.3570 -41.0050 208° Southwest 438 504 34,000  Level FlightAware
11:23AM -8.4460 -41.0530 208° Southwest 438 504 34,000  Level FlightAware
11:24AM -8.5290 -41.0990 209° Southwest 438 504 34,000  Level FlightAware
11:24AM -8.6000 -41.1370 208° Southwest 437 503 34,000  Level FlightAware
11:25AM -8.6570 -41.1680 208° Southwest 437 503 34,000  Level FlightAware
11:25AM -8.7280 -41.2070 208° Southwest 437 503 34,000  Level FlightAware
11:26AM -8.8000 -41.2460 208° Southwest 438 504 34,000  Level FlightAware
11:27AM -8.8610 -41.2790 208° Southwest 438 504 34,000  Level FlightAware
11:27AM -8.9390 -41.3210 208° Southwest 438 504 34,000  Level FlightAware
11:28AM -8.9940 -41.3510 208° Southwest 440 506 34,000  Level FlightAware
11:28AM -9.0580 -41.3860 208° Southwest 441 507 34,000  Level FlightAware
11:29AM -9.1230 -41.4220 209° Southwest 441 507 34,000  Level FlightAware
11:30AM -9.1810 -41.4530 208° Southwest 441 507 34,000  Level FlightAware
11:30AM -9.2700 -41.5020 209° Southwest 441 507 34,000  Level FlightAware
11:31AM -9.3300 -41.5350 208° Southwest 439 505 34,000  Level FlightAware
11:32AM -9.3960 -41.5700 208° Southwest 438 504 34,000  Level FlightAware
11:33AM -9.5000 -41.6270 208° Southwest 438 504 34,000  Level FlightAware
11:34AM -9.6200 -41.6930 208° Southwest 439 505 34,000  Level FlightAware
11:35AM -9.7180 -41.7470 209° Southwest 441 507 34,000  Level FlightAware
11:35AM -9.7800 -41.7810 208° Southwest 442 509 34,000  Level FlightAware
11:36AM -9.8510 -41.8200 208° Southwest 442 509 34,000  Level FlightAware
11:36AM -9.9010 -41.8470 208° Southwest 443 510 34,000  Level FlightAware
11:37AM -9.9910 -41.8960 208° Southwest 442 509 34,000  Level FlightAware
11:38AM -10.1010 -41.9570 209° Southwest 439 505 34,000  Level FlightAware
11:39AM -10.1830 -42.0010 208° Southwest 438 504 34,000  Level FlightAware
11:40AM -10.2600 -42.0440 209° Southwest 437 503 34,000  Level FlightAware
11:40AM -10.3290 -42.0820 208° Southwest 437 503 34,000  Level FlightAware
11:41AM -10.3760 -42.1080 209° Southwest 438 504 34,000  Level FlightAware
11:41AM -10.4370 -42.1410 208° Southwest 437 503 34,000  Level FlightAware
11:42AM -10.4960 -42.1730 208° Southwest 437 503 34,000  Level FlightAware
11:43AM -10.5810 -42.2200 209° Southwest 437 503 34,000  Level FlightAware
11:43AM -10.6380 -42.2520 209° Southwest 438 504 34,000  Level FlightAware
11:44AM -10.7130 -42.2930 208° Southwest 437 503 34,000  Level FlightAware
11:45AM -10.7910 -42.3360 208° Southwest 437 503 34,000  Level FlightAware
11:45AM -10.8500 -42.3690 209° Southwest 437 503 34,000  Level FlightAware
11:46AM -10.9140 -42.4040 208° Southwest 438 504 34,000  Level FlightAware
11:47AM -10.9980 -42.4510 209° Southwest 439 505 34,000  Level FlightAware
11:47AM -11.0530 -42.4810 208° Southwest 438 504 34,000  Level FlightAware
11:48AM -11.1160 -42.5150 208° Southwest 437 503 34,000  Level FlightAware
11:48AM -11.1530 -42.5350 208° Southwest 437 503 34,000  Level FlightAware
11:49AM -11.2100 -42.5660 208° Southwest 437 503 34,000  Level FlightAware
11:49AM -11.2620 -42.5940 208° Southwest 437 503 34,000  Level FlightAware
11:50AM -11.3180 -42.6250 208° Southwest 437 503 34,000  Level FlightAware
11:51AM -11.3740 -42.6550 208° Southwest 437 503 34,000  Level FlightAware
11:51AM -11.5040 -42.7310 210° Southwest 430 495 34,000  Level FlightAware
11:52AM -11.5780 -42.7720 208° Southwest 430 495 34,000  Level FlightAware
11:53AM -11.6300 -42.8010 209° Southwest 430 495 34,000  Level FlightAware
11:54AM -11.7250 -42.8520 208° Southwest 430 495 34,000  Level FlightAware
11:54AM -11.7790 -42.8820 209° Southwest 430 495 34,000  Level FlightAware
11:55AM -11.8340 -42.9120 208° Southwest 430 495 34,000  Level FlightAware
11:55AM -11.8880 -42.9410 208° Southwest 430 495 34,000  Level FlightAware
11:56AM -11.9570 -42.9780 208° Southwest 430 495 34,000  Level FlightAware
11:57AM -11.9940 -42.9980 208° Southwest 430 495 34,000  Level FlightAware
11:57AM -12.0480 -43.0280 209° Southwest 430 495 34,000  Level FlightAware
11:58AM -12.1050 -43.0580 207° Southwest 430 495 34,000  Level FlightAware
11:58AM -12.1390 -43.0770 209° Southwest 430 495 34,000  Level FlightAware
11:59AM -12.1940 -43.1070 208° Southwest 430 495 34,000  Level FlightAware
11:59AM -12.2500 -43.1370 208° Southwest 430 495 34,000  Level FlightAware
12:00PM -12.3230 -43.1770 208° Southwest 430 495 34,000  Level FlightAware
12:01PM -12.3760 -43.2060 208° Southwest 430 495 34,000  Level FlightAware
12:01PM -12.4140 -43.2270 208° Southwest 430 495 34,000  Level FlightAware
12:02PM -12.4850 -43.2660 208° Southwest 430 495 34,000  Level FlightAware
12:02PM -12.5210 -43.2850 207° Southwest 430 495 34,000  Level FlightAware
12:06PM -12.8348 -43.3715 195° South  Level Estimated
12:07PM -12.9376 -43.3999 195° South  Level Estimated
12:08PM -13.0405 -43.4284 195° South  Level Estimated
12:09PM -13.1434 -43.4568 195° South  Level Estimated
12:10PM -13.2462 -43.4853 195° South  Level Estimated
12:11PM -13.3491 -43.5138 195° South  Level Estimated
12:12PM -13.4519 -43.5424 195° South  Level Estimated
12:13PM -13.5548 -43.5709 195° South  Level Estimated
12:14PM -13.6576 -43.5995 195° South  Level Estimated
12:15PM -13.7605 -43.6281 195° South  Level Estimated
12:16PM -13.8633 -43.6567 195° South  Level Estimated
12:17PM -13.9662 -43.6854 195° South  Level Estimated
12:18PM -14.0690 -43.7141 195° South  Level Estimated
12:19PM -14.1718 -43.7428 195° South  Level Estimated
12:20PM -14.2746 -43.7715 195° South  Level Estimated
12:21PM -14.3775 -43.8003 195° South  Level Estimated
12:22PM -14.4803 -43.8291 195° South  Level Estimated
12:23PM -14.5831 -43.8579 195° South  Level Estimated
12:24PM -14.6859 -43.8867 195° South  Level Estimated
12:25PM -14.7887 -43.9156 195° South  Level Estimated
12:26PM -14.8915 -43.9445 195° South  Level Estimated
12:27PM -14.9943 -43.9734 195° South  Level Estimated
12:28PM -15.0971 -44.0024 195° South  Level Estimated
12:29PM -15.1999 -44.0314 195° South  Level Estimated
12:30PM -15.3027 -44.0604 195° South  Level Estimated
12:31PM -15.4055 -44.0894 195° South  Level Estimated
12:32PM -15.5083 -44.1185 195° South  Level Estimated
12:33PM -15.6111 -44.1476 195° South  Level Estimated
12:34PM -15.7139 -44.1767 195° South  Level Estimated
12:35PM -15.8166 -44.2058 195° South  Level Estimated
12:36PM -15.9194 -44.2350 195° South  Level Estimated
12:37PM -16.0222 -44.2642 195° South  Level Estimated
12:38PM -16.1249 -44.2935 195° South  Level Estimated
12:38PM -16.2540 -45.4240 195° South 418 481 36,000  Level FlightAware
12:38PM -16.2920 -45.4450 208° Southwest 417 480 36,000  Level FlightAware
12:39PM -16.3830 -45.4990 210° Southwest 417 480 36,000  Level FlightAware
12:39PM -16.4190 -45.5190 208° Southwest 416 479 36,000  Level FlightAware
12:40PM -16.5030 -45.5680 209° Southwest 416 479 36,000  Level FlightAware
12:41PM -16.5720 -45.6090 210° Southwest 415 478 36,000  Level FlightAware
12:41PM -16.6360 -45.6460 209° Southwest 414 476 36,000  Level FlightAware
12:42PM -16.7520 -45.7140 209° Southwest 413 475 36,000  Level FlightAware
12:43PM -16.8020 -45.7450 211° Southwest 412 474 36,000  Level FlightAware
12:44PM -16.8610 -45.7820 211° Southwest 411 473 36,000  Level FlightAware
12:44PM -16.9020 -45.8070 210° Southwest 411 473 36,000  Level FlightAware
12:45PM -16.9720 -45.8490 210° Southwest 410 472 36,000  Level FlightAware
12:45PM -17.0520 -45.8930 208° Southwest 413 475 36,000  Level FlightAware
12:46PM -17.1100 -45.9270 209° Southwest 415 478 36,000  Level FlightAware
12:47PM -17.1970 -45.9760 208° Southwest 416 479 36,000  Level FlightAware
12:48PM -17.2600 -46.0130 209° Southwest 415 478 36,000  Level FlightAware
12:48PM -17.3380 -46.0580 209° Southwest 415 478 36,000  Level FlightAware
12:49PM -17.3910 -46.0900 210° Southwest 413 475 36,000  Level FlightAware
12:50PM -17.4650 -46.1330 209° Southwest 413 475 36,000  Level FlightAware
12:50PM -17.5380 -46.1760 209° Southwest 413 475 36,000  Level FlightAware
12:51PM -17.5880 -46.2050 209° Southwest 413 475 36,000  Level FlightAware
12:52PM -17.6730 -46.2560 210° Southwest 412 474 36,000  Level FlightAware
12:52PM -17.7400 -46.2950 209° Southwest 411 473 36,000  Level FlightAware
12:53PM -17.8230 -46.3430 209° Southwest 411 473 36,000  Level FlightAware
12:54PM -17.8890 -46.3790 207° Southwest 410 472 36,000  Level FlightAware
12:54PM -17.9410 -46.4100 210° Southwest 410 472 36,000  Level FlightAware
12:55PM -17.9970 -46.4440 210° Southwest 411 473 36,000  Level FlightAware
12:56PM -18.0640 -46.4850 210° Southwest 412 474 36,000  Level FlightAware
12:56PM -18.1300 -46.5250 210° Southwest 412 474 36,000  Level FlightAware
12:57PM -18.1890 -46.5610 210° Southwest 412 474 36,000  Level FlightAware
12:57PM -18.2490 -46.5980 210° Southwest 412 474 36,000  Level FlightAware
12:58PM -18.3110 -46.6340 209° Southwest 410 472 36,000  Level FlightAware
12:59PM -18.3600 -46.6630 209° Southwest 410 472 36,000  Level FlightAware
01:00PM -18.4610 -46.7230 209° Southwest 408 470 36,000  Level FlightAware
01:00PM -18.5090 -46.7520 210° Southwest 406 467 36,000  Level FlightAware
01:01PM -18.6080 -46.8110 209° Southwest 405 466 36,000  Level FlightAware
01:02PM -18.7470 -46.8940 209° Southwest 406 467 36,000  Level FlightAware
01:03PM -18.8030 -46.9270 209° Southwest 405 466 36,000  Level FlightAware
01:04PM -18.8580 -46.9600 210° Southwest 405 466 36,000  Level FlightAware
01:04PM -18.9100 -46.9910 209° Southwest 405 466 36,000  Level FlightAware
01:05PM -18.9650 -47.0240 210° Southwest 405 466 36,000  Level FlightAware
01:05PM -19.0420 -47.0700 209° Southwest 407 468 36,000  Level FlightAware
01:06PM -19.1070 -47.1080 209° Southwest 410 472 36,000  Level FlightAware
01:07PM -19.1810 -47.1360 200° South 414 476 36,000  Level FlightAware
01:07PM -19.2550 -47.1500 190° South 421 484 36,000  Level FlightAware
01:08PM -19.3440 -47.1560 184° South 424 488 36,000  Level FlightAware
01:09PM -19.4160 -47.1620 184° South 424 488 36,000  Level FlightAware
01:09PM -19.4840 -47.1660 183° South 423 487 36,000 60 Level FlightAware
01:10PM -19.5360 -47.1700 184° South 421 484 36,100  Climbing FlightAware
01:10PM -19.5980 -47.1740 183° South 421 484 36,000 -180 Descending FlightAware
01:11PM -19.6280 -47.1770 185° South 420 483 36,000  Level FlightAware
01:11PM -19.7120 -47.1830 184° South 416 479 36,000  Level FlightAware
01:12PM -19.7760 -47.1870 183° South 416 479 36,000  Level FlightAware
01:13PM -19.8510 -47.1920 184° South 415 478 36,000  Level FlightAware
01:13PM -19.9050 -47.1960 184° South 414 476 36,000  Level FlightAware
01:14PM -20.0220 -47.2040 184° South 415 478 36,000  Level FlightAware
01:15PM -20.0990 -47.2090 183° South 418 481 36,000  Level FlightAware
01:15PM -20.1760 -47.2150 184° South 421 484 36,000  Level FlightAware
01:16PM -20.2340 -47.2190 184° South 423 487 36,000 60 Level FlightAware
01:17PM -20.3150 -47.2140 177° South 424 488 36,100  Climbing FlightAware
01:17PM -20.4120 -47.2100 178° South 421 484 36,000 -120 Descending FlightAware
01:18PM -20.4730 -47.2070 177° South 420 483 36,000  Level FlightAware
01:18PM -20.5380 -47.2030 177° South 419 482 36,000  Level FlightAware
01:19PM -20.6280 -47.1990 178° South 418 481 36,000  Level FlightAware
01:20PM -20.6850 -47.1960 177° South 418 481 36,000  Level FlightAware
01:21PM -20.8010 -47.1900 177° South 417 480 36,000  Level FlightAware
01:21PM -20.8680 -47.1860 177° South 415 478 36,000  Level FlightAware
01:22PM -20.9360 -47.1830 178° South 414 476 36,000  Level FlightAware
01:23PM -21.0120 -47.1790 177° South 414 476 36,000  Level FlightAware
01:23PM -21.0790 -47.1750 177° South 413 475 36,000  Level FlightAware
01:24PM -21.1570 -47.1710 177° South 414 476 36,000  Level FlightAware
01:24PM -21.2240 -47.1680 178° South 416 479 36,000  Level FlightAware
01:25PM -21.3010 -47.1640 177° South 418 481 36,000  Level FlightAware
01:26PM -21.3710 -47.1600 177° South 417 480 36,000  Level FlightAware
01:26PM -21.4460 -47.1560 177° South 418 481 36,000  Level FlightAware
01:27PM -21.5220 -47.1520 177° South 416 479 36,000  Level FlightAware
01:27PM -21.5820 -47.1490 177° South 416 479 36,000  Level FlightAware
01:28PM -21.6390 -47.1460 177° South 415 478 36,000 -180 Level FlightAware
01:29PM -21.7120 -47.1430 178° South 416 479 35,800 -1,200 Descending FlightAware
01:29PM -21.7880 -47.1380 177° South 410 472 34,500 -2,220 Descending FlightAware
01:30PM -21.8800 -47.1340 178° South 409 471 32,500 -2,400 Descending FlightAware
01:31PM -21.9490 -47.1300 177° South 410 472 31,200 -1,920 Descending FlightAware
01:31PM -22.0300 -47.1260 177° South 417 480 30,100 -1,800 Descending FlightAware
01:32PM -22.0890 -47.1230 177° South 415 478 29,000 -2,160 Descending FlightAware
01:33PM -22.1640 -47.1190 177° South 410 472 27,600 -2,220 Descending FlightAware
01:33PM -22.2620 -47.1140 177° South 403 464 25,700 -2,160 Descending FlightAware
01:34PM -22.3690 -47.1080 177° South 388 447 23,800 -1,980 Descending FlightAware
01:35PM -22.4470 -47.1040 177° South 379 436 22,400 -1,980 Descending FlightAware
01:36PM -22.5060 -47.1010 177° South 378 435 21,300 -1,920 Descending FlightAware
01:36PM -22.5570 -47.0980 177° South 374 430 20,400 -1,800 Descending FlightAware
01:37PM -22.6270 -47.0760 164° South 371 427 19,200 -1,680 Descending FlightAware
01:37PM -22.6870 -47.0510 159° South 365 420 18,200 -1,620 Descending FlightAware
01:38PM -22.7300 -47.0330 159° South 362 417 17,500 -1,560 Descending FlightAware
01:39PM -22.7890 -47.0080 159° South 356 410 16,500 -1,320 Descending FlightAware
01:39PM -22.8510 -46.9820 159° South 335 386 15,800 -840 Descending FlightAware
01:40PM -22.9140 -46.9560 159° South 306 352 15,300 -780 Descending FlightAware
01:41PM -22.9600 -46.9360 158° South 288 331 14,800 -1,140 Descending FlightAware
01:41PM -23.0130 -46.9140 159° South 274 315 13,800 -1,920 Descending FlightAware
01:42PM -23.0470 -46.9000 159° South 285 328 12,500 -2,220 Descending FlightAware
01:43PM -23.1080 -46.8740 159° South 289 333 11,000 -1,440 Descending FlightAware
01:43PM -23.1590 -46.8530 159° South 274 315 10,400 -840 Descending FlightAware
01:44PM -23.1920 -46.8390 159° South 252 290 10,000 -900 Descending FlightAware
01:44PM -23.2320 -46.8220 159° South 226 260 9,400 -1,080 Descending FlightAware
01:45PM -23.2750 -46.8040 159° South 221 254 8,600 -1,140 Descending FlightAware
01:46PM -23.3020 -46.7920 158° South 221 254 8,000 -1,260 Descending FlightAware
01:46PM -23.3390 -46.7770 160° South 220 253 7,200 -840 Descending FlightAware
01:47PM -23.3710 -46.7620 157° South 209 241 7,000 -420 Descending FlightAware
01:48PM -23.4040 -46.7330 141° Southeast 209 241 6,700 -660 Descending FlightAware
01:48PM -23.4270 -46.7110 139° Southeast 206 237 6,200 -840 Descending FlightAware
01:49PM -23.4560 -46.6850 141° Southeast 187 215 5,700 -720 Descending FlightAware
01:50PM -23.4820 -46.6550 133° Southeast 157 181 5,200 -660 Descending FlightAware
01:50PM -23.4780 -46.6340 78° East 154 177 4,900 -720 Descending FlightAware
01:51PM -23.4700 -46.6040 74° East 150 173 4,400 -780 Descending FlightAware
01:51PM -23.4630 -46.5770 74° East 150 173 3,900 -840 Descending FlightAware
01:52PM -23.4570 -46.5540 74° East 146 168 3,500 -780 Descending FlightAware
01:53PM -23.4510 -46.5320 73° East 147 169 3,100 -780 Descending FlightAware
01:53PM -23.4430 -46.5030 73° East 143 165 2,600 -780 Descending FlightAware
01:54PM -23.4370 -46.4790 75° East 140 161 -4,020 Descending FlightAware